No particular awareness of the weather is required.    There are no Weather-warnings


Meteo18 Weather Cam more information Meteo18 Weather Cam


Thunder radar more information blitzortung!


Rain radar more information rain snow radar


Visit our other weather sites:

Template documentation
and downloads

And another site



Weather Underground History page Text

Daily Summary for February 15, 2017 Units:  Both    English   Metric
« Previous Day
Next Day »
Daily Weekly Monthly Yearly Custom
  High: Low: Average:
Temperature: 63.3 °F /  17.4 °C 43.9 °F /  6.6 °C 52.2 °F /  11.2 °C
Dew Point: 48.9 °F /  9.4 °C 39.9 °F /  4.4 °C 44.1 °F /  6.7 °C
Humidity: 89 % 53 % 75 %
Wind Speed: 7 mph /  11.3 km/h - 1 mph /  1.6 km/h
Wind Gust: 10 mph /  16.1 km/h - -
Wind:- - SSW
Pressure: 30.5 in /  1033.7 hPa 30.4 in /  1030.0 hPa -
Precipitation: 0 in /  0.0 mm    
Historical Graphs
 
 
Tabular Data for February 15, 2017
Time Temperature Dew Point Pressure Wind Wind Speed Wind Gust Humidity Rainfall Rate (Hourly)
00:02 48.6 °F /  9.2 °C 42.6 °F /  5.9 °C 30.4 in /  1030.0 hPa Calm   4 mph /  6.4 km/h 80 % 0 in /  0.0 mm
00:07 48.6 °F /  9.2 °C 42.6 °F /  5.9 °C 30.4 in /  1030.0 hPa Calm   4 mph /  6.4 km/h 80 % 0 in /  0.0 mm
00:12 48.6 °F /  9.2 °C 43 °F /  6.1 °C 30.4 in /  1030.0 hPa SE 1 mph /  1.6 km/h   81 % 0 in /  0.0 mm
00:17 48.9 °F /  9.4 °C 43 °F /  6.1 °C 30.4 in /  1030.4 hPa SSE 1 mph /  1.6 km/h   80 % 0 in /  0.0 mm
00:22 48.9 °F /  9.4 °C 43 °F /  6.1 °C 30.4 in /  1030.4 hPa SSE 1 mph /  1.6 km/h 2 mph /  3.2 km/h 80 % 0 in /  0.0 mm
00:27 48.9 °F /  9.4 °C 42.6 °F /  5.9 °C 30.4 in /  1030.4 hPa Calm   2 mph /  3.2 km/h 79 % 0 in /  0.0 mm
00:32 49.1 °F /  9.5 °C 42.8 °F /  6.0 °C 30.4 in /  1030.4 hPa Calm   3 mph /  4.8 km/h 79 % 0 in /  0.0 mm
00:37 49.3 °F /  9.6 °C 43 °F /  6.1 °C 30.4 in /  1030.4 hPa Calm   3 mph /  4.8 km/h 79 % 0 in /  0.0 mm
00:42 49.3 °F /  9.6 °C 43 °F /  6.1 °C 30.4 in /  1030.4 hPa Calm   3 mph /  4.8 km/h 79 % 0 in /  0.0 mm
00:47 48.9 °F /  9.4 °C 43 °F /  6.1 °C 30.4 in /  1030.4 hPa Calm   3 mph /  4.8 km/h 80 % 0 in /  0.0 mm
00:52 48.9 °F /  9.4 °C 43 °F /  6.1 °C 30.4 in /  1030.4 hPa Calm     80 % 0 in /  0.0 mm
00:57 48.9 °F /  9.4 °C 42.6 °F /  5.9 °C 30.4 in /  1030.4 hPa Calm     79 % 0 in /  0.0 mm
01:02 48.9 °F /  9.4 °C 42.6 °F /  5.9 °C 30.4 in /  1030.4 hPa Calm   1 mph /  1.6 km/h 79 % 0 in /  0.0 mm
01:07 48.7 °F /  9.3 °C 42.8 °F /  6.0 °C 30.4 in /  1030.4 hPa Calm   1 mph /  1.6 km/h 80 % 0 in /  0.0 mm
01:12 48.6 °F /  9.2 °C 42.6 °F /  5.9 °C 30.4 in /  1030.7 hPa SE 2 mph /  3.2 km/h 2 mph /  3.2 km/h 80 % 0 in /  0.0 mm
01:17 48.7 °F /  9.3 °C 42.8 °F /  6.0 °C 30.4 in /  1030.4 hPa Calm   3 mph /  4.8 km/h 80 % 0 in /  0.0 mm
01:22 48.7 °F /  9.3 °C 42.8 °F /  6.0 °C 30.4 in /  1030.4 hPa South 1 mph /  1.6 km/h 3 mph /  4.8 km/h 80 % 0 in /  0.0 mm
01:27 48.7 °F /  9.3 °C 42.8 °F /  6.0 °C 30.4 in /  1030.4 hPa Calm   3 mph /  4.8 km/h 80 % 0 in /  0.0 mm
01:37 48.7 °F /  9.3 °C 42.8 °F /  6.0 °C 30.4 in /  1030.7 hPa Calm   2 mph /  3.2 km/h 80 % 0 in /  0.0 mm
01:42 48.7 °F /  9.3 °C 42.8 °F /  6.0 °C 30.4 in /  1030.7 hPa ESE 1 mph /  1.6 km/h 2 mph /  3.2 km/h 80 % 0 in /  0.0 mm
01:47 48.7 °F /  9.3 °C 42.4 °F /  5.8 °C 30.4 in /  1030.7 hPa Calm   2 mph /  3.2 km/h 79 % 0 in /  0.0 mm
01:57 48.6 °F /  9.2 °C 42.3 °F /  5.7 °C 30.4 in /  1030.7 hPa Calm   3 mph /  4.8 km/h 79 % 0 in /  0.0 mm
02:02 48.6 °F /  9.2 °C 42.6 °F /  5.9 °C 30.4 in /  1030.7 hPa Calm   3 mph /  4.8 km/h 80 % 0 in /  0.0 mm
02:12 48.2 °F /  9.0 °C 42.3 °F /  5.7 °C 30.4 in /  1030.7 hPa Calm   3 mph /  4.8 km/h 80 % 0 in /  0.0 mm
02:17 48 °F /  8.9 °C 42.1 °F /  5.6 °C 30.4 in /  1030.7 hPa Calm   3 mph /  4.8 km/h 80 % 0 in /  0.0 mm
02:22 48 °F /  8.9 °C 42.1 °F /  5.6 °C 30.4 in /  1030.7 hPa Calm   3 mph /  4.8 km/h 80 % 0 in /  0.0 mm
02:32 48 °F /  8.9 °C 42.1 °F /  5.6 °C 30.4 in /  1030.7 hPa Calm   3 mph /  4.8 km/h 80 % 0 in /  0.0 mm
02:42 47.8 °F /  8.8 °C 41.9 °F /  5.5 °C 30.4 in /  1030.7 hPa SW 1 mph /  1.6 km/h 4 mph /  6.4 km/h 80 % 0 in /  0.0 mm
02:52 47.1 °F /  8.4 °C 41.9 °F /  5.5 °C 30.4 in /  1031.0 hPa SW 2 mph /  3.2 km/h 3 mph /  4.8 km/h 82 % 0 in /  0.0 mm
03:02 47.7 °F /  8.7 °C 42.1 °F /  5.6 °C 30.4 in /  1030.7 hPa WSW 2 mph /  3.2 km/h 4 mph /  6.4 km/h 81 % 0 in /  0.0 mm
03:12 48 °F /  8.9 °C 42.1 °F /  5.6 °C 30.4 in /  1030.7 hPa SSE 2 mph /  3.2 km/h 5 mph /  8.0 km/h 80 % 0 in /  0.0 mm
03:17 48.2 °F /  9.0 °C 42.3 °F /  5.7 °C 30.4 in /  1030.7 hPa Calm   7 mph /  11.3 km/h 80 % 0 in /  0.0 mm
03:22 48.4 °F /  9.1 °C 42.3 °F /  5.7 °C 30.4 in /  1030.7 hPa SSE 3 mph /  4.8 km/h 7 mph /  11.3 km/h 79 % 0 in /  0.0 mm
03:27 48 °F /  8.9 °C 42.1 °F /  5.6 °C 30.4 in /  1031.0 hPa Calm   7 mph /  11.3 km/h 80 % 0 in /  0.0 mm
03:32 47.8 °F /  8.8 °C 41.9 °F /  5.5 °C 30.4 in /  1030.7 hPa SSW 1 mph /  1.6 km/h 6 mph /  9.7 km/h 80 % 0 in /  0.0 mm
03:42 47.5 °F /  8.6 °C 41.9 °F /  5.5 °C 30.4 in /  1030.7 hPa SW 1 mph /  1.6 km/h 3 mph /  4.8 km/h 81 % 0 in /  0.0 mm
03:52 47.3 °F /  8.5 °C 41.7 °F /  5.4 °C 30.4 in /  1031.0 hPa Calm   2 mph /  3.2 km/h 81 % 0 in /  0.0 mm
03:57 47.1 °F /  8.4 °C 41.5 °F /  5.3 °C 30.4 in /  1031.0 hPa Calm   2 mph /  3.2 km/h 81 % 0 in /  0.0 mm
04:02 46.9 °F /  8.3 °C 41.4 °F /  5.2 °C 30.4 in /  1031.0 hPa Calm   2 mph /  3.2 km/h 81 % 0 in /  0.0 mm
04:12 46.8 °F /  8.2 °C 41.5 °F /  5.3 °C 30.4 in /  1031.0 hPa Calm   1 mph /  1.6 km/h 82 % 0 in /  0.0 mm
04:17 46.8 °F /  8.2 °C 41.5 °F /  5.3 °C 30.4 in /  1031.0 hPa Calm   1 mph /  1.6 km/h 82 % 0 in /  0.0 mm
04:22 46.9 °F /  8.3 °C 41.7 °F /  5.4 °C 30.4 in /  1031.0 hPa Calm   1 mph /  1.6 km/h 82 % 0 in /  0.0 mm
04:27 46.6 °F /  8.1 °C 41.7 °F /  5.4 °C 30.4 in /  1031.0 hPa Calm   1 mph /  1.6 km/h 83 % 0 in /  0.0 mm
04:32 46.2 °F /  7.9 °C 41.7 °F /  5.4 °C 30.4 in /  1031.0 hPa Calm     84 % 0 in /  0.0 mm
04:42 46.8 °F /  8.2 °C 41.9 °F /  5.5 °C 30.4 in /  1031.0 hPa Calm   2 mph /  3.2 km/h 83 % 0 in /  0.0 mm
04:47 46.8 °F /  8.2 °C 41.5 °F /  5.3 °C 30.4 in /  1031.0 hPa Calm   2 mph /  3.2 km/h 82 % 0 in /  0.0 mm
04:52 46.9 °F /  8.3 °C 41.7 °F /  5.4 °C 30.5 in /  1031.4 hPa Calm   2 mph /  3.2 km/h 82 % 0 in /  0.0 mm
04:57 46.9 °F /  8.3 °C 41.7 °F /  5.4 °C 30.5 in /  1031.4 hPa SE 1 mph /  1.6 km/h 2 mph /  3.2 km/h 82 % 0 in /  0.0 mm
05:02 46.9 °F /  8.3 °C 41.7 °F /  5.4 °C 30.5 in /  1031.4 hPa Calm   2 mph /  3.2 km/h 82 % 0 in /  0.0 mm
05:12 46.9 °F /  8.3 °C 41.7 °F /  5.4 °C 30.5 in /  1031.4 hPa Calm   2 mph /  3.2 km/h 82 % 0 in /  0.0 mm
05:22 46.8 °F /  8.2 °C 41.5 °F /  5.3 °C 30.5 in /  1031.4 hPa Calm   2 mph /  3.2 km/h 82 % 0 in /  0.0 mm
05:32 46.6 °F /  8.1 °C 41.4 °F /  5.2 °C 30.5 in /  1031.7 hPa Calm     82 % 0 in /  0.0 mm
05:42 46.6 °F /  8.1 °C 41.4 °F /  5.2 °C 30.5 in /  1031.7 hPa Calm     82 % 0 in /  0.0 mm
05:52 45.9 °F /  7.7 °C 41.4 °F /  5.2 °C 30.5 in /  1031.7 hPa Calm     84 % 0 in /  0.0 mm
05:57 46 °F /  7.8 °C 41.2 °F /  5.1 °C 30.5 in /  1031.7 hPa Calm   3 mph /  4.8 km/h 83 % 0 in /  0.0 mm
06:02 46.2 °F /  7.9 °C 41.4 °F /  5.2 °C 30.5 in /  1031.7 hPa Calm   3 mph /  4.8 km/h 83 % 0 in /  0.0 mm
06:12 46.2 °F /  7.9 °C 41 °F /  5.0 °C 30.5 in /  1031.7 hPa SSE 1 mph /  1.6 km/h 3 mph /  4.8 km/h 82 % 0 in /  0.0 mm
06:17 46.6 °F /  8.1 °C 41.4 °F /  5.2 °C 30.5 in /  1031.7 hPa Calm   3 mph /  4.8 km/h 82 % 0 in /  0.0 mm
06:22 46.6 °F /  8.1 °C 41.4 °F /  5.2 °C 30.5 in /  1032.1 hPa SSE 1 mph /  1.6 km/h 3 mph /  4.8 km/h 82 % 0 in /  0.0 mm
06:32 46.2 °F /  7.9 °C 41 °F /  5.0 °C 30.5 in /  1032.1 hPa Calm   3 mph /  4.8 km/h 82 % 0 in /  0.0 mm
06:42 46.6 °F /  8.1 °C 41.4 °F /  5.2 °C 30.5 in /  1032.1 hPa SW 1 mph /  1.6 km/h 2 mph /  3.2 km/h 82 % 0 in /  0.0 mm
06:52 46.6 °F /  8.1 °C 41.4 °F /  5.2 °C 30.5 in /  1032.1 hPa SSE 1 mph /  1.6 km/h 2 mph /  3.2 km/h 82 % 0 in /  0.0 mm
06:57 46.2 °F /  7.9 °C 41 °F /  5.0 °C 30.5 in /  1032.1 hPa Calm   2 mph /  3.2 km/h 82 % 0 in /  0.0 mm
07:02 46 °F /  7.8 °C 41.2 °F /  5.1 °C 30.5 in /  1032.1 hPa Calm   2 mph /  3.2 km/h 83 % 0 in /  0.0 mm
07:12 46 °F /  7.8 °C 41.2 °F /  5.1 °C 30.5 in /  1032.1 hPa Calm   1 mph /  1.6 km/h 83 % 0 in /  0.0 mm
07:17 46 °F /  7.8 °C 41.2 °F /  5.1 °C 30.5 in /  1032.1 hPa Calm   2 mph /  3.2 km/h 83 % 0 in /  0.0 mm
07:22 45.9 °F /  7.7 °C 41 °F /  5.0 °C 30.5 in /  1032.1 hPa Calm   2 mph /  3.2 km/h 83 % 0 in /  0.0 mm
07:32 45.7 °F /  7.6 °C 40.8 °F /  4.9 °C 30.5 in /  1032.1 hPa Calm   2 mph /  3.2 km/h 83 % 0 in /  0.0 mm
07:42 45.7 °F /  7.6 °C 41.2 °F /  5.1 °C 30.5 in /  1032.4 hPa Calm   1 mph /  1.6 km/h 84 % 0 in /  0.0 mm
07:47 45.5 °F /  7.5 °C 41 °F /  5.0 °C 30.5 in /  1032.4 hPa Calm   1 mph /  1.6 km/h 84 % 0 in /  0.0 mm
07:52 45.3 °F /  7.4 °C 40.8 °F /  4.9 °C 30.5 in /  1032.4 hPa Calm   1 mph /  1.6 km/h 84 % 0 in /  0.0 mm
07:57 45.1 °F /  7.3 °C 40.6 °F /  4.8 °C 30.5 in /  1032.4 hPa Calm     84 % 0 in /  0.0 mm
08:02 45 °F /  7.2 °C 40.5 °F /  4.7 °C 30.5 in /  1032.4 hPa Calm     84 % 0 in /  0.0 mm
08:07 44.8 °F /  7.1 °C 40.5 °F /  4.7 °C 30.5 in /  1032.4 hPa Calm     85 % 0 in /  0.0 mm
08:12 44.8 °F /  7.1 °C 40.8 °F /  4.9 °C 30.5 in /  1032.4 hPa Calm     86 % 0 in /  0.0 mm
08:22 44.8 °F /  7.1 °C 40.5 °F /  4.7 °C 30.5 in /  1032.7 hPa Calm     85 % 0 in /  0.0 mm
08:32 44.8 °F /  7.1 °C 40.8 °F /  4.9 °C 30.5 in /  1033.1 hPa Calm     86 % 0 in /  0.0 mm
08:42 43.9 °F /  6.6 °C 39.9 °F /  4.4 °C 30.5 in /  1033.1 hPa Calm     86 % 0 in /  0.0 mm
08:52 44.8 °F /  7.1 °C 40.8 °F /  4.9 °C 30.5 in /  1033.1 hPa Calm     86 % 0 in /  0.0 mm
09:02 45.9 °F /  7.7 °C 41.4 °F /  5.2 °C 30.5 in /  1033.1 hPa Calm     84 % 0 in /  0.0 mm
09:12 46.6 °F /  8.1 °C 41.7 °F /  5.4 °C 30.5 in /  1033.4 hPa Calm     83 % 0 in /  0.0 mm
09:17 47.7 °F /  8.7 °C 43 °F /  6.1 °C 30.5 in /  1033.4 hPa Calm     84 % 0 in /  0.0 mm
09:22 48.7 °F /  9.3 °C 42.8 °F /  6.0 °C 30.5 in /  1033.4 hPa Calm     80 % 0 in /  0.0 mm
09:32 49.3 °F /  9.6 °C 42.8 °F /  6.0 °C 30.5 in /  1033.4 hPa Calm     78 % 0 in /  0.0 mm
09:42 49.8 °F /  9.9 °C 43 °F /  6.1 °C 30.5 in /  1033.4 hPa Calm     77 % 0 in /  0.0 mm
09:47 50.4 °F /  10.2 °C 43.2 °F /  6.2 °C 30.5 in /  1033.4 hPa Calm     76 % 0 in /  0.0 mm
09:52 49.5 °F /  9.7 °C 42.3 °F /  5.7 °C 30.5 in /  1033.4 hPa SW 1 mph /  1.6 km/h   76 % 0 in /  0.0 mm
09:57 49.5 °F /  9.7 °C 42.8 °F /  6.0 °C 30.5 in /  1033.4 hPa Calm   2 mph /  3.2 km/h 78 % 0 in /  0.0 mm
10:02 49.8 °F /  9.9 °C 43 °F /  6.1 °C 30.5 in /  1033.4 hPa Calm   2 mph /  3.2 km/h 77 % 0 in /  0.0 mm
10:12 50.4 °F /  10.2 °C 43.2 °F /  6.2 °C 30.5 in /  1033.7 hPa Calm   2 mph /  3.2 km/h 76 % 0 in /  0.0 mm
10:17 50.2 °F /  10.1 °C 43.3 °F /  6.3 °C 30.5 in /  1033.7 hPa SSW 1 mph /  1.6 km/h 2 mph /  3.2 km/h 77 % 0 in /  0.0 mm
10:22 50.7 °F /  10.4 °C 44.1 °F /  6.7 °C 30.5 in /  1033.7 hPa SW 1 mph /  1.6 km/h 2 mph /  3.2 km/h 78 % 0 in /  0.0 mm
10:32 50.9 °F /  10.5 °C 43.5 °F /  6.4 °C 30.5 in /  1033.7 hPa SE 2 mph /  3.2 km/h 4 mph /  6.4 km/h 76 % 0 in /  0.0 mm
10:42 51.8 °F /  11.0 °C 44.1 °F /  6.7 °C 30.5 in /  1033.7 hPa South 2 mph /  3.2 km/h 4 mph /  6.4 km/h 75 % 0 in /  0.0 mm
10:47 52.2 °F /  11.2 °C 44.4 °F /  6.9 °C 30.5 in /  1033.7 hPa SSE 1 mph /  1.6 km/h 3 mph /  4.8 km/h 75 % 0 in /  0.0 mm
10:52 52.5 °F /  11.4 °C 44.4 °F /  6.9 °C 30.5 in /  1033.7 hPa SSW 2 mph /  3.2 km/h 3 mph /  4.8 km/h 74 % 0 in /  0.0 mm
11:02 53.2 °F /  11.8 °C 45.5 °F /  7.5 °C 30.5 in /  1033.4 hPa SSE 2 mph /  3.2 km/h 3 mph /  4.8 km/h 75 % 0 in /  0.0 mm
11:12 54 °F /  12.2 °C 45.1 °F /  7.3 °C 30.5 in /  1033.4 hPa ESE 3 mph /  4.8 km/h 5 mph /  8.0 km/h 72 % 0 in /  0.0 mm
11:22 54.9 °F /  12.7 °C 46 °F /  7.8 °C 30.5 in /  1033.4 hPa SE 3 mph /  4.8 km/h 4 mph /  6.4 km/h 72 % 0 in /  0.0 mm
11:32 55.8 °F /  13.2 °C 46.6 °F /  8.1 °C 30.5 in /  1033.4 hPa SSE 3 mph /  4.8 km/h 5 mph /  8.0 km/h 71 % 0 in /  0.0 mm
11:42 56.1 °F /  13.4 °C 46.4 °F /  8.0 °C 30.5 in /  1033.4 hPa SE 4 mph /  6.4 km/h 5 mph /  8.0 km/h 70 % 0 in /  0.0 mm
11:52 56.8 °F /  13.8 °C 47.1 °F /  8.4 °C 30.5 in /  1033.4 hPa SSE 2 mph /  3.2 km/h 6 mph /  9.7 km/h 70 % 0 in /  0.0 mm
11:57 57 °F /  13.9 °C 46.6 °F /  8.1 °C 30.5 in /  1033.4 hPa South 3 mph /  4.8 km/h 7 mph /  11.3 km/h 68 % 0 in /  0.0 mm
12:02 57 °F /  13.9 °C 46.2 °F /  7.9 °C 30.5 in /  1033.7 hPa SSE 5 mph /  8.0 km/h 7 mph /  11.3 km/h 67 % 0 in /  0.0 mm
12:12 57.4 °F /  14.1 °C 46.9 °F /  8.3 °C 30.5 in /  1033.4 hPa South 6 mph /  9.7 km/h 8 mph /  12.9 km/h 68 % 0 in /  0.0 mm
12:17 57.4 °F /  14.1 °C 46.6 °F /  8.1 °C 30.5 in /  1033.4 hPa South 4 mph /  6.4 km/h 8 mph /  12.9 km/h 67 % 0 in /  0.0 mm
12:22 57.4 °F /  14.1 °C 47.7 °F /  8.7 °C 30.5 in /  1033.4 hPa SSE 3 mph /  4.8 km/h 8 mph /  12.9 km/h 70 % 0 in /  0.0 mm
12:32 57.6 °F /  14.2 °C 47.8 °F /  8.8 °C 30.5 in /  1033.4 hPa South 3 mph /  4.8 km/h 9 mph /  14.5 km/h 70 % 0 in /  0.0 mm
12:42 57.7 °F /  14.3 °C 46.9 °F /  8.3 °C 30.5 in /  1033.4 hPa SSE 2 mph /  3.2 km/h 10 mph /  16.1 km/h 67 % 0 in /  0.0 mm
12:52 58.5 °F /  14.7 °C 47.5 °F /  8.6 °C 30.5 in /  1033.4 hPa South 4 mph /  6.4 km/h 8 mph /  12.9 km/h 67 % 0 in /  0.0 mm
12:57 58.6 °F /  14.8 °C 47.7 °F /  8.7 °C 30.5 in /  1033.4 hPa SSE 2 mph /  3.2 km/h 8 mph /  12.9 km/h 67 % 0 in /  0.0 mm
13:02 58.6 °F /  14.8 °C 47.7 °F /  8.7 °C 30.5 in /  1033.4 hPa SSW 4 mph /  6.4 km/h 8 mph /  12.9 km/h 67 % 0 in /  0.0 mm
13:12 59 °F /  15.0 °C 47.3 °F /  8.5 °C 30.5 in /  1033.1 hPa SSW 1 mph /  1.6 km/h 9 mph /  14.5 km/h 65 % 0 in /  0.0 mm
13:17 59.2 °F /  15.1 °C 47.5 °F /  8.6 °C 30.5 in /  1033.1 hPa SSW 1 mph /  1.6 km/h 9 mph /  14.5 km/h 65 % 0 in /  0.0 mm
13:22 59.5 °F /  15.3 °C 47.3 °F /  8.5 °C 30.5 in /  1033.1 hPa SE 3 mph /  4.8 km/h 9 mph /  14.5 km/h 64 % 0 in /  0.0 mm
13:32 59.5 °F /  15.3 °C 48.2 °F /  9.0 °C 30.5 in /  1033.1 hPa SSW 4 mph /  6.4 km/h 6 mph /  9.7 km/h 66 % 0 in /  0.0 mm
13:42 60.1 °F /  15.6 °C 47.5 °F /  8.6 °C 30.5 in /  1033.1 hPa South 2 mph /  3.2 km/h 6 mph /  9.7 km/h 63 % 0 in /  0.0 mm
13:52 60.4 °F /  15.8 °C 48.2 °F /  9.0 °C 30.5 in /  1033.1 hPa SSE 3 mph /  4.8 km/h 5 mph /  8.0 km/h 64 % 0 in /  0.0 mm
14:02 60.1 °F /  15.6 °C 47.8 °F /  8.8 °C 30.5 in /  1033.1 hPa SSW 1 mph /  1.6 km/h 5 mph /  8.0 km/h 64 % 0 in /  0.0 mm
14:12 60.1 °F /  15.6 °C 47.8 °F /  8.8 °C 30.5 in /  1033.1 hPa SSE 2 mph /  3.2 km/h 6 mph /  9.7 km/h 64 % 0 in /  0.0 mm
14:17 60.3 °F /  15.7 °C 47.1 °F /  8.4 °C 30.5 in /  1032.7 hPa SE 2 mph /  3.2 km/h 6 mph /  9.7 km/h 62 % 0 in /  0.0 mm
14:22 60.4 °F /  15.8 °C 47.8 °F /  8.8 °C 30.5 in /  1032.7 hPa SE 3 mph /  4.8 km/h 6 mph /  9.7 km/h 63 % 0 in /  0.0 mm
14:32 61 °F /  16.1 °C 48.4 °F /  9.1 °C 30.5 in /  1032.7 hPa South 3 mph /  4.8 km/h 7 mph /  11.3 km/h 63 % 0 in /  0.0 mm
14:37 61 °F /  16.1 °C 47.5 °F /  8.6 °C 30.5 in /  1032.7 hPa SSW 2 mph /  3.2 km/h 7 mph /  11.3 km/h 61 % 0 in /  0.0 mm
14:42 60.8 °F /  16.0 °C 48.2 °F /  9.0 °C 30.5 in /  1032.7 hPa SE 3 mph /  4.8 km/h 7 mph /  11.3 km/h 63 % 0 in /  0.0 mm
14:47 61.2 °F /  16.2 °C 48 °F /  8.9 °C 30.5 in /  1032.7 hPa SSW 1 mph /  1.6 km/h 7 mph /  11.3 km/h 62 % 0 in /  0.0 mm
14:52 61.3 °F /  16.3 °C 47.8 °F /  8.8 °C 30.5 in /  1032.7 hPa SSE 2 mph /  3.2 km/h 7 mph /  11.3 km/h 61 % 0 in /  0.0 mm
15:02 61.5 °F /  16.4 °C 48.4 °F /  9.1 °C 30.5 in /  1032.7 hPa SE 2 mph /  3.2 km/h 7 mph /  11.3 km/h 62 % 0 in /  0.0 mm
15:07 61.7 °F /  16.5 °C 48.2 °F /  9.0 °C 30.5 in /  1032.7 hPa South 3 mph /  4.8 km/h 7 mph /  11.3 km/h 61 % 0 in /  0.0 mm
15:12 61.9 °F /  16.6 °C 47.8 °F /  8.8 °C 30.5 in /  1032.7 hPa SW 4 mph /  6.4 km/h 7 mph /  11.3 km/h 60 % 0 in /  0.0 mm
15:17 61.5 °F /  16.4 °C 47.5 °F /  8.6 °C 30.5 in /  1032.7 hPa SE 3 mph /  4.8 km/h 9 mph /  14.5 km/h 60 % 0 in /  0.0 mm
15:22 61.9 °F /  16.6 °C 48.2 °F /  9.0 °C 30.5 in /  1032.7 hPa SW 5 mph /  8.0 km/h 9 mph /  14.5 km/h 61 % 0 in /  0.0 mm
15:32 62.2 °F /  16.8 °C 47.3 °F /  8.5 °C 30.5 in /  1032.7 hPa SSW 2 mph /  3.2 km/h 9 mph /  14.5 km/h 58 % 0 in /  0.0 mm
15:42 62.4 °F /  16.9 °C 47.5 °F /  8.6 °C 30.5 in /  1032.7 hPa SSE 2 mph /  3.2 km/h 7 mph /  11.3 km/h 58 % 0 in /  0.0 mm
15:47 62.6 °F /  17.0 °C 48.9 °F /  9.4 °C 30.5 in /  1032.7 hPa SSW 3 mph /  4.8 km/h 6 mph /  9.7 km/h 61 % 0 in /  0.0 mm
15:52 62.8 °F /  17.1 °C 47.8 °F /  8.8 °C 30.5 in /  1032.7 hPa SSW 7 mph /  11.3 km/h 7 mph /  11.3 km/h 58 % 0 in /  0.0 mm
15:57 62.8 °F /  17.1 °C 47.3 °F /  8.5 °C 30.5 in /  1032.7 hPa SW 3 mph /  4.8 km/h 7 mph /  11.3 km/h 57 % 0 in /  0.0 mm
16:02 62.8 °F /  17.1 °C 47.3 °F /  8.5 °C 30.5 in /  1032.7 hPa SW 4 mph /  6.4 km/h 7 mph /  11.3 km/h 57 % 0 in /  0.0 mm
16:07 63 °F /  17.2 °C 48 °F /  8.9 °C 30.5 in /  1032.4 hPa SSW 3 mph /  4.8 km/h 7 mph /  11.3 km/h 58 % 0 in /  0.0 mm
16:12 62.6 °F /  17.0 °C 46.2 °F /  7.9 °C 30.5 in /  1032.4 hPa SE 4 mph /  6.4 km/h 7 mph /  11.3 km/h 55 % 0 in /  0.0 mm
16:17 62.4 °F /  16.9 °C 47.8 °F /  8.8 °C 30.5 in /  1032.7 hPa South 2 mph /  3.2 km/h 8 mph /  12.9 km/h 59 % 0 in /  0.0 mm
16:22 62.8 °F /  17.1 °C 46.9 °F /  8.3 °C 30.5 in /  1032.7 hPa SE 1 mph /  1.6 km/h 8 mph /  12.9 km/h 56 % 0 in /  0.0 mm
16:27 63 °F /  17.2 °C 48 °F /  8.9 °C 30.5 in /  1032.4 hPa South 3 mph /  4.8 km/h 6 mph /  9.7 km/h 58 % 0 in /  0.0 mm
16:37 63.1 °F /  17.3 °C 46.8 °F /  8.2 °C 30.5 in /  1032.4 hPa SE 4 mph /  6.4 km/h 7 mph /  11.3 km/h 55 % 0 in /  0.0 mm
16:42 63.1 °F /  17.3 °C 46.8 °F /  8.2 °C 30.5 in /  1032.4 hPa South 2 mph /  3.2 km/h 7 mph /  11.3 km/h 55 % 0 in /  0.0 mm
16:47 63.3 °F /  17.4 °C 46.4 °F /  8.0 °C 30.5 in /  1032.4 hPa SSE 1 mph /  1.6 km/h 7 mph /  11.3 km/h 54 % 0 in /  0.0 mm
16:52 63.1 °F /  17.3 °C 47.1 °F /  8.4 °C 30.5 in /  1032.4 hPa South 3 mph /  4.8 km/h 4 mph /  6.4 km/h 56 % 0 in /  0.0 mm
16:57 63 °F /  17.2 °C 47.5 °F /  8.6 °C 30.5 in /  1032.4 hPa SSE 2 mph /  3.2 km/h 5 mph /  8.0 km/h 57 % 0 in /  0.0 mm
17:02 62.8 °F /  17.1 °C 47.3 °F /  8.5 °C 30.5 in /  1032.4 hPa SSE 2 mph /  3.2 km/h 5 mph /  8.0 km/h 57 % 0 in /  0.0 mm
17:12 62.8 °F /  17.1 °C 46.4 °F /  8.0 °C 30.5 in /  1032.4 hPa SE 1 mph /  1.6 km/h 5 mph /  8.0 km/h 55 % 0 in /  0.0 mm
17:17 62.8 °F /  17.1 °C 46.9 °F /  8.3 °C 30.5 in /  1032.4 hPa SE 1 mph /  1.6 km/h 5 mph /  8.0 km/h 56 % 0 in /  0.0 mm
17:22 63 °F /  17.2 °C 45.5 °F /  7.5 °C 30.5 in /  1032.4 hPa SSE 1 mph /  1.6 km/h 5 mph /  8.0 km/h 53 % 0 in /  0.0 mm
17:32 62.6 °F /  17.0 °C 46.8 °F /  8.2 °C 30.5 in /  1032.4 hPa SW 1 mph /  1.6 km/h 3 mph /  4.8 km/h 56 % 0 in /  0.0 mm
17:42 61.3 °F /  16.3 °C 46.4 °F /  8.0 °C 30.5 in /  1032.4 hPa SSE 1 mph /  1.6 km/h 2 mph /  3.2 km/h 58 % 0 in /  0.0 mm
17:47 60.4 °F /  15.8 °C 46 °F /  7.8 °C 30.5 in /  1032.4 hPa Calm   2 mph /  3.2 km/h 59 % 0 in /  0.0 mm
17:52 59.9 °F /  15.5 °C 46 °F /  7.8 °C 30.5 in /  1032.4 hPa Calm   2 mph /  3.2 km/h 60 % 0 in /  0.0 mm
17:57 59.5 °F /  15.3 °C 46 °F /  7.8 °C 30.5 in /  1032.4 hPa Calm   1 mph /  1.6 km/h 61 % 0 in /  0.0 mm
18:02 59.2 °F /  15.1 °C 45.7 °F /  7.6 °C 30.5 in /  1032.4 hPa Calm   1 mph /  1.6 km/h 61 % 0 in /  0.0 mm
18:12 58.1 °F /  14.5 °C 45.1 °F /  7.3 °C 30.5 in /  1032.4 hPa Calm     62 % 0 in /  0.0 mm
18:17 57.6 °F /  14.2 °C 45.5 °F /  7.5 °C 30.5 in /  1032.4 hPa Calm     64 % 0 in /  0.0 mm
18:22 57.2 °F /  14.0 °C 45.5 °F /  7.5 °C 30.5 in /  1032.7 hPa Calm     65 % 0 in /  0.0 mm
18:32 56.3 °F /  13.5 °C 44.6 °F /  7.0 °C 30.5 in /  1032.7 hPa Calm     65 % 0 in /  0.0 mm
18:42 55.2 °F /  12.9 °C 44.4 °F /  6.9 °C 30.5 in /  1032.7 hPa Calm     67 % 0 in /  0.0 mm
18:47 55 °F /  12.8 °C 44.6 °F /  7.0 °C 30.5 in /  1032.7 hPa Calm     68 % 0 in /  0.0 mm
18:52 54.7 °F /  12.6 °C 44.8 °F /  7.1 °C 30.5 in /  1032.7 hPa Calm     69 % 0 in /  0.0 mm
19:02 54.3 °F /  12.4 °C 44.8 °F /  7.1 °C 30.5 in /  1033.1 hPa Calm   1 mph /  1.6 km/h 70 % 0 in /  0.0 mm
19:12 53.4 °F /  11.9 °C 44.2 °F /  6.8 °C 30.5 in /  1033.1 hPa WNW 1 mph /  1.6 km/h 2 mph /  3.2 km/h 71 % 0 in /  0.0 mm
19:17 54 °F /  12.2 °C 44.4 °F /  6.9 °C 30.5 in /  1033.1 hPa WNW 1 mph /  1.6 km/h 2 mph /  3.2 km/h 70 % 0 in /  0.0 mm
19:32 53.8 °F /  12.1 °C 44.6 °F /  7.0 °C 30.5 in /  1033.1 hPa Calm   2 mph /  3.2 km/h 71 % 0 in /  0.0 mm
19:42 53.8 °F /  12.1 °C 44.6 °F /  7.0 °C 30.5 in /  1033.1 hPa NNE 1 mph /  1.6 km/h 2 mph /  3.2 km/h 71 % 0 in /  0.0 mm
19:47 53.6 °F /  12.0 °C 44.4 °F /  6.9 °C 30.5 in /  1033.1 hPa NNE 1 mph /  1.6 km/h 1 mph /  1.6 km/h 71 % 0 in /  0.0 mm
19:52 53.1 °F /  11.7 °C 44.2 °F /  6.8 °C 30.5 in /  1033.1 hPa Calm   1 mph /  1.6 km/h 72 % 0 in /  0.0 mm
19:57 52.2 °F /  11.2 °C 44.1 °F /  6.7 °C 30.5 in /  1033.1 hPa Calm   1 mph /  1.6 km/h 74 % 0 in /  0.0 mm
20:02 52 °F /  11.1 °C 44.2 °F /  6.8 °C 30.5 in /  1033.1 hPa Calm   1 mph /  1.6 km/h 75 % 0 in /  0.0 mm
20:07 52 °F /  11.1 °C 43.9 °F /  6.6 °C 30.5 in /  1033.1 hPa Calm   1 mph /  1.6 km/h 74 % 0 in /  0.0 mm
20:12 51.6 °F /  10.9 °C 43.5 °F /  6.4 °C 30.5 in /  1033.1 hPa NW 1 mph /  1.6 km/h 1 mph /  1.6 km/h 74 % 0 in /  0.0 mm
20:22 51.4 °F /  10.8 °C 44.1 °F /  6.7 °C 30.5 in /  1033.1 hPa NW 1 mph /  1.6 km/h 1 mph /  1.6 km/h 76 % 0 in /  0.0 mm
20:32 52 °F /  11.1 °C 44.2 °F /  6.8 °C 30.5 in /  1033.1 hPa Calm   1 mph /  1.6 km/h 75 % 0 in /  0.0 mm
20:42 50.7 °F /  10.4 °C 43.5 °F /  6.4 °C 30.5 in /  1033.1 hPa NW 1 mph /  1.6 km/h 1 mph /  1.6 km/h 76 % 0 in /  0.0 mm
20:52 50.5 °F /  10.3 °C 43.9 °F /  6.6 °C 30.5 in /  1033.1 hPa Calm   1 mph /  1.6 km/h 78 % 0 in /  0.0 mm
20:57 50.5 °F /  10.3 °C 43.9 °F /  6.6 °C 30.5 in /  1033.1 hPa Calm   1 mph /  1.6 km/h 78 % 0 in /  0.0 mm
21:02 50.4 °F /  10.2 °C 43.7 °F /  6.5 °C 30.5 in /  1033.1 hPa North 1 mph /  1.6 km/h 1 mph /  1.6 km/h 78 % 0 in /  0.0 mm
21:12 49.5 °F /  9.7 °C 43.5 °F /  6.4 °C 30.5 in /  1033.4 hPa NW 1 mph /  1.6 km/h 1 mph /  1.6 km/h 80 % 0 in /  0.0 mm
21:17 49.5 °F /  9.7 °C 43.5 °F /  6.4 °C 30.5 in /  1033.4 hPa NW 1 mph /  1.6 km/h 2 mph /  3.2 km/h 80 % 0 in /  0.0 mm
21:22 50.2 °F /  10.1 °C 43.9 °F /  6.6 °C 30.5 in /  1033.4 hPa NNW 3 mph /  4.8 km/h 3 mph /  4.8 km/h 79 % 0 in /  0.0 mm
21:27 50.2 °F /  10.1 °C 43.5 °F /  6.4 °C 30.5 in /  1033.4 hPa North 1 mph /  1.6 km/h 3 mph /  4.8 km/h 78 % 0 in /  0.0 mm
21:37 50.2 °F /  10.1 °C 43.9 °F /  6.6 °C 30.5 in /  1033.4 hPa Calm   3 mph /  4.8 km/h 79 % 0 in /  0.0 mm
21:42 49.6 °F /  9.8 °C 43.3 °F /  6.3 °C 30.5 in /  1033.4 hPa Calm   3 mph /  4.8 km/h 79 % 0 in /  0.0 mm
21:52 49.3 °F /  9.6 °C 43.7 °F /  6.5 °C 30.5 in /  1033.4 hPa Calm   1 mph /  1.6 km/h 81 % 0 in /  0.0 mm
22:02 48.4 °F /  9.1 °C 43.2 °F /  6.2 °C 30.5 in /  1033.4 hPa WNW 1 mph /  1.6 km/h 1 mph /  1.6 km/h 82 % 0 in /  0.0 mm
22:12 48.2 °F /  9.0 °C 43 °F /  6.1 °C 30.5 in /  1033.4 hPa WNW 1 mph /  1.6 km/h 2 mph /  3.2 km/h 82 % 0 in /  0.0 mm
22:17 47.5 °F /  8.6 °C 42.8 °F /  6.0 °C 30.5 in /  1033.4 hPa Calm   2 mph /  3.2 km/h 84 % 0 in /  0.0 mm
22:22 47.5 °F /  8.6 °C 43.2 °F /  6.2 °C 30.5 in /  1033.4 hPa Calm   1 mph /  1.6 km/h 85 % 0 in /  0.0 mm
22:32 47.8 °F /  8.8 °C 43.2 °F /  6.2 °C 30.5 in /  1033.4 hPa North 1 mph /  1.6 km/h 1 mph /  1.6 km/h 84 % 0 in /  0.0 mm
22:37 47.7 °F /  8.7 °C 43 °F /  6.1 °C 30.5 in /  1033.4 hPa North 1 mph /  1.6 km/h 2 mph /  3.2 km/h 84 % 0 in /  0.0 mm
22:42 47.7 °F /  8.7 °C 43 °F /  6.1 °C 30.5 in /  1033.4 hPa Calm   2 mph /  3.2 km/h 84 % 0 in /  0.0 mm
22:47 47.8 °F /  8.8 °C 43.2 °F /  6.2 °C 30.5 in /  1033.4 hPa Calm   2 mph /  3.2 km/h 84 % 0 in /  0.0 mm
22:52 47.3 °F /  8.5 °C 42.4 °F /  5.8 °C 30.5 in /  1033.4 hPa Calm   2 mph /  3.2 km/h 83 % 0 in /  0.0 mm
23:02 46.8 °F /  8.2 °C 42.3 °F /  5.7 °C 30.5 in /  1033.4 hPa Calm   1 mph /  1.6 km/h 84 % 0 in /  0.0 mm
23:12 46.2 °F /  7.9 °C 42.3 °F /  5.7 °C 30.5 in /  1033.4 hPa Calm   1 mph /  1.6 km/h 86 % 0 in /  0.0 mm
23:22 45.7 °F /  7.6 °C 41.7 °F /  5.4 °C 30.5 in /  1033.4 hPa WNW 1 mph /  1.6 km/h 1 mph /  1.6 km/h 86 % 0 in /  0.0 mm
23:32 45.7 °F /  7.6 °C 42.6 °F /  5.9 °C 30.5 in /  1033.4 hPa Calm   2 mph /  3.2 km/h 89 % 0 in /  0.0 mm
23:37 45.9 °F /  7.7 °C 42.8 °F /  6.0 °C 30.5 in /  1033.4 hPa Calm   2 mph /  3.2 km/h 89 % 0 in /  0.0 mm
23:42 45.9 °F /  7.7 °C 42.4 °F /  5.8 °C 30.5 in /  1033.4 hPa Calm   2 mph /  3.2 km/h 88 % 0 in /  0.0 mm
23:47 45.9 °F /  7.7 °C 42.8 °F /  6.0 °C 30.5 in /  1033.4 hPa Calm   1 mph /  1.6 km/h 89 % 0 in /  0.0 mm
23:52 45.7 °F /  7.6 °C 42.6 °F /  5.9 °C 30.5 in /  1033.4 hPa WNW 1 mph /  1.6 km/h 1 mph /  1.6 km/h 89 % 0 in /  0.0 mm
Meteo18
Compliments of Weather Underground - 4 mb

Script developed by  Jim McMurry - jmcmurry@mwt.net Adapted for the template by  Wim van der Kuil - Leuven-Template.eu

You find our weather info also at:

European Weather Network

Weather Underground

Equipment we use:

Weather-station
Davis Vue

Weather-program
Meteohub

Weather-server
Raspberry PI 2 B+

Provider
1 and 1

Davis Vue

Meteohub

Raspberry PI 2 B+

1 and 1